createdAt,value
2024-02-17T09:01:27.158Z,50.00
2024-02-17T09:02:04.556Z,50.00
2024-02-17T09:03:04.546Z,50.00
2024-02-17T09:04:04.593Z,50.00
2024-02-17T09:05:04.555Z,50.00
2024-02-17T09:06:04.614Z,50.00
2024-02-17T09:07:04.726Z,28.64
2024-02-17T09:08:05.658Z,5.87
2024-02-17T09:09:13.085Z,50.00
2024-02-17T09:10:13.016Z,50.00
2024-02-17T09:11:14.806Z,50.00
2024-02-17T09:12:13.157Z,50.00
2024-02-17T09:13:13.126Z,50.00
2024-02-17T09:14:13.167Z,50.00
2024-02-17T09:15:13.353Z,49.99
2024-02-17T09:16:13.350Z,50.00
2024-02-17T09:17:13.395Z,50.00
2024-02-17T09:18:13.538Z,50.00
2024-02-17T09:19:13.640Z,50.00
2024-02-17T09:20:13.784Z,50.00
2024-02-17T09:21:13.651Z,51.12
2024-02-17T09:22:13.701Z,50.00
2024-02-17T09:23:13.769Z,50.00
2024-02-17T09:24:13.861Z,51.24
2024-02-17T09:25:13.808Z,47.99
2024-02-17T09:26:13.878Z,41.94
2024-02-17T09:27:13.859Z,33.60
2024-02-17T09:28:13.838Z,29.55
2024-02-17T09:29:13.823Z,25.02
2024-02-17T09:30:13.870Z,38.04
2024-02-17T09:31:13.856Z,51.70
2024-02-17T09:32:13.841Z,50.00
2024-02-17T09:33:13.958Z,52.68
2024-02-17T09:34:14.017Z,50.00
2024-02-17T09:35:13.994Z,51.47
2024-02-17T09:36:13.997Z,52.08
2024-02-17T09:37:14.013Z,50.02
2024-02-17T09:38:14.065Z,52.02
2024-02-17T09:39:14.144Z,50.92
2024-02-17T09:40:14.246Z,50.37
2024-02-17T09:41:14.216Z,50.26
2024-02-17T09:42:14.315Z,49.26
2024-02-17T09:43:14.366Z,51.96
2024-02-17T09:44:14.419Z,50.72
2024-02-17T09:45:14.466Z,52.22
2024-02-17T09:46:14.515Z,49.81
2024-02-17T09:47:14.540Z,50.00
2024-02-17T09:48:14.774Z,52.26
2024-02-17T09:49:14.798Z,51.65
2024-02-17T09:50:15.598Z,53.44
2024-02-17T09:51:14.846Z,51.37
2024-02-17T09:52:14.805Z,51.20
2024-02-17T09:53:14.822Z,51.12
2024-02-17T09:54:14.914Z,52.61
2024-02-17T09:55:14.912Z,51.79
2024-02-17T09:56:14.949Z,51.27
2024-02-17T09:57:15.049Z,51.06
2024-02-17T09:58:15.180Z,51.40
2024-02-17T09:59:15.129Z,51.87
2024-02-17T10:00:15.296Z,52.54
2024-02-17T10:01:15.273Z,50.57
2024-02-17T10:02:15.273Z,50.84
2024-02-17T10:03:15.366Z,50.00
2024-02-17T10:04:15.411Z,51.09
2024-02-17T10:05:15.497Z,51.26
2024-02-17T10:06:15.648Z,50.00
2024-02-17T10:07:15.570Z,50.40
2024-02-17T10:08:15.544Z,54.13
2024-02-17T10:09:15.618Z,51.77
2024-02-17T10:10:15.632Z,53.91
2024-02-17T10:11:15.816Z,51.11
2024-02-17T10:12:15.745Z,51.27
2024-02-17T10:13:15.750Z,51.68
2024-02-17T10:14:15.777Z,51.26
2024-02-17T10:15:15.874Z,50.51
2024-02-17T10:16:15.897Z,50.64
2024-02-17T10:17:15.964Z,53.74
2024-02-17T10:18:17.891Z,50.84
2024-02-17T10:19:16.159Z,53.57
2024-02-17T10:20:16.053Z,53.35
2024-02-17T10:21:16.026Z,51.56
2024-02-17T10:22:15.963Z,51.31
2024-02-17T10:23:15.981Z,50.94
2024-02-17T10:24:16.045Z,50.48
2024-02-17T10:25:15.990Z,51.83
2024-02-17T10:26:15.999Z,51.17
2024-02-17T10:27:16.040Z,52.86
2024-02-17T10:28:15.992Z,53.19
2024-02-17T10:29:15.985Z,53.58
2024-02-17T10:30:16.010Z,51.63
2024-02-17T10:31:15.994Z,50.46
2024-02-17T10:32:15.975Z,50.90
2024-02-17T10:33:16.201Z,54.06
2024-02-17T10:34:16.111Z,52.67
2024-02-17T10:35:16.089Z,50.00
2024-02-17T10:36:16.063Z,53.63
2024-02-17T10:37:16.131Z,53.59
2024-02-17T10:38:16.058Z,50.76
2024-02-17T10:39:16.022Z,52.24
2024-02-17T10:40:15.973Z,53.28
2024-02-17T10:41:16.021Z,51.97
2024-02-17T10:42:16.039Z,53.40
2024-02-17T10:43:15.999Z,51.13
2024-02-17T10:44:15.999Z,52.60
2024-02-17T10:45:16.085Z,52.55
2024-02-17T10:46:16.124Z,51.64
2024-02-17T10:47:16.048Z,50.57
2024-02-17T10:48:16.169Z,51.03
2024-02-17T10:49:16.074Z,51.53
2024-02-17T10:50:17.935Z,53.62
2024-02-17T10:51:16.096Z,51.16
2024-02-17T10:52:16.005Z,52.70
2024-02-17T10:53:15.994Z,53.31
2024-02-17T10:54:16.072Z,53.16
2024-02-17T10:55:16.056Z,52.06
2024-02-17T10:56:16.062Z,52.42
2024-02-17T10:57:16.073Z,51.66
2024-02-17T10:58:16.043Z,51.97
2024-02-17T10:59:16.057Z,52.26
2024-02-17T11:00:16.024Z,50.62
2024-02-17T11:01:16.095Z,52.54
2024-02-17T11:02:16.057Z,52.62
2024-02-17T11:03:16.087Z,52.94
2024-02-17T11:04:16.093Z,50.00
2024-02-17T11:05:16.040Z,51.38
2024-02-17T11:06:16.141Z,51.15
2024-02-17T11:07:16.127Z,52.65
2024-02-17T11:08:16.018Z,55.15
2024-02-17T11:09:16.144Z,53.08
2024-02-17T11:10:16.086Z,51.88
2024-02-17T11:11:16.078Z,52.92
2024-02-17T11:12:16.052Z,53.11
2024-02-17T11:13:16.052Z,52.09
2024-02-17T11:14:16.061Z,52.29
2024-02-17T11:15:16.145Z,53.32
2024-02-17T11:16:16.081Z,53.19
2024-02-17T11:17:16.029Z,53.30
2024-02-17T11:18:16.231Z,53.59
2024-02-17T11:19:18.783Z,53.77
2024-02-17T11:20:16.226Z,52.72
2024-02-17T11:21:16.103Z,52.85
2024-02-17T11:22:16.047Z,53.81
2024-02-17T11:23:16.078Z,53.54
2024-02-17T11:24:16.288Z,54.62
2024-02-17T11:25:16.064Z,53.56
2024-02-17T11:26:22.649Z,54.27
2024-02-17T11:27:17.124Z,53.47
2024-02-17T11:28:16.085Z,54.43
2024-02-17T11:29:16.101Z,54.02
2024-02-17T11:30:16.328Z,54.87
2024-02-17T11:31:16.117Z,53.07
2024-02-17T11:32:16.094Z,53.06
2024-02-17T11:33:16.246Z,54.27
2024-02-17T11:34:16.213Z,53.78
2024-02-17T11:35:16.215Z,54.17
2024-02-17T11:36:16.221Z,52.91
2024-02-17T11:37:16.164Z,53.53
2024-02-17T11:38:16.085Z,52.20
2024-02-17T11:39:16.152Z,53.25
2024-02-17T11:40:16.102Z,54.11
2024-02-17T11:41:16.109Z,53.24
2024-02-17T11:42:16.120Z,54.75
2024-02-17T11:43:16.156Z,52.74
2024-02-17T11:44:16.183Z,54.70
2024-02-17T11:45:16.315Z,53.80
2024-02-17T11:46:17.817Z,54.79
2024-02-17T11:47:16.334Z,54.58
2024-02-17T11:48:16.395Z,54.85
2024-02-17T11:49:16.466Z,55.48
2024-02-17T11:50:16.401Z,54.85
2024-02-17T11:51:16.480Z,55.22
2024-02-17T11:52:16.522Z,54.62
2024-02-17T11:53:16.537Z,56.89
2024-02-17T11:54:16.613Z,54.41
2024-02-17T11:55:16.572Z,54.19
2024-02-17T11:56:16.877Z,54.58
2024-02-17T11:57:16.716Z,53.29
2024-02-17T11:58:16.657Z,58.21
2024-02-17T11:59:16.668Z,57.43
2024-02-17T12:00:16.890Z,57.75
2024-02-17T12:01:17.095Z,56.58
2024-02-17T12:02:16.754Z,57.72
2024-02-17T12:03:16.868Z,56.79
2024-02-17T12:04:16.962Z,57.74
2024-02-17T12:05:16.917Z,57.02
2024-02-17T12:06:17.101Z,56.25
2024-02-17T12:07:17.137Z,61.28
2024-02-17T12:08:16.909Z,57.76
2024-02-17T12:09:17.044Z,59.27
2024-02-17T12:10:17.035Z,58.99
2024-02-17T12:11:16.993Z,59.39
2024-02-17T12:12:17.050Z,58.94
2024-02-17T12:13:17.068Z,58.70
2024-02-17T12:14:17.079Z,57.56
2024-02-17T12:15:17.263Z,57.63
2024-02-17T12:16:17.168Z,56.72
2024-02-17T12:17:17.192Z,58.44
2024-02-17T12:18:17.313Z,58.63
2024-02-17T12:19:17.488Z,58.26
2024-02-17T12:20:17.314Z,56.82
2024-02-17T12:21:17.307Z,59.51
2024-02-17T12:22:17.337Z,60.08
2024-02-17T12:23:17.356Z,59.33
2024-02-17T12:24:17.372Z,60.14
2024-02-17T12:25:17.416Z,57.46
2024-02-17T12:26:24.961Z,59.12
2024-02-17T12:27:18.378Z,60.11
2024-02-17T12:28:17.372Z,59.82
2024-02-17T12:29:17.396Z,60.65
2024-02-17T12:30:17.440Z,59.78
2024-02-17T12:31:17.340Z,59.63
2024-02-17T12:32:17.367Z,58.38
2024-02-17T12:33:17.425Z,61.44
2024-02-17T12:34:17.471Z,59.26
2024-02-17T12:35:17.554Z,60.44
2024-02-17T12:36:17.421Z,60.75
2024-02-17T12:37:17.425Z,60.01
2024-02-17T12:38:19.982Z,60.27
2024-02-17T12:39:17.469Z,60.08
2024-02-17T12:40:17.449Z,60.33
2024-02-17T12:41:17.429Z,59.43
2024-02-17T12:42:17.447Z,58.98
2024-02-17T12:43:17.392Z,59.60
2024-02-17T12:44:17.857Z,60.99
2024-02-17T12:45:17.387Z,59.50
2024-02-17T12:46:17.368Z,60.91
2024-02-17T12:47:17.622Z,60.11
2024-02-17T12:48:17.553Z,59.33
2024-02-17T12:49:17.544Z,60.72
2024-02-17T12:50:18.197Z,61.01
2024-02-17T12:51:17.439Z,61.67
2024-02-17T12:52:17.384Z,59.73
2024-02-17T12:53:17.375Z,59.68
2024-02-17T12:54:17.458Z,60.89
2024-02-17T12:55:17.437Z,59.99
2024-02-17T12:56:18.052Z,60.06
2024-02-17T12:57:17.455Z,60.16
2024-02-17T12:58:17.478Z,60.56
2024-02-17T12:59:17.419Z,63.69
2024-02-17T13:00:17.426Z,63.91
2024-02-17T13:01:17.406Z,61.52
2024-02-17T13:02:17.446Z,63.16
2024-02-17T13:03:17.483Z,61.05
2024-02-17T13:04:17.571Z,63.32
2024-02-17T13:05:17.554Z,59.62
2024-02-17T13:06:17.513Z,62.95
2024-02-17T13:07:17.490Z,61.74
2024-02-17T13:08:17.419Z,61.40
2024-02-17T13:09:17.471Z,61.47
2024-02-17T13:10:17.421Z,60.87
2024-02-17T13:11:17.519Z,63.31
2024-02-17T13:12:17.500Z,61.59
2024-02-17T13:13:17.456Z,63.49
2024-02-17T13:14:17.413Z,60.97
2024-02-17T13:15:17.532Z,62.81
2024-02-17T13:16:17.475Z,62.88
2024-02-17T13:17:17.431Z,60.87
2024-02-17T13:18:17.648Z,64.03
2024-02-17T13:19:17.658Z,62.15
2024-02-17T13:20:17.868Z,62.40
2024-02-17T13:21:17.512Z,61.48
2024-02-17T13:22:17.643Z,60.83
2024-02-17T13:23:17.489Z,62.82
2024-02-17T13:24:17.563Z,62.16
2024-02-17T13:25:17.579Z,60.75
2024-02-17T13:26:17.567Z,61.81
2024-02-17T13:27:17.640Z,64.98
2024-02-17T13:28:17.608Z,63.44
2024-02-17T13:29:17.610Z,63.22
2024-02-17T13:30:17.678Z,64.29
2024-02-17T13:31:17.675Z,63.76
2024-02-17T13:32:17.659Z,63.81
2024-02-17T13:33:18.192Z,63.86
2024-02-17T13:34:17.852Z,64.60
2024-02-17T13:35:17.880Z,64.12
2024-02-17T13:36:17.798Z,62.87
2024-02-17T13:37:17.771Z,63.65
2024-02-17T13:38:25.291Z,64.57
2024-02-17T13:39:18.847Z,64.59
2024-02-17T13:40:17.755Z,64.62
2024-02-17T13:41:17.816Z,61.82
2024-02-17T13:42:17.910Z,64.00
2024-02-17T13:43:17.765Z,64.68
2024-02-17T13:44:17.799Z,64.16
2024-02-17T13:45:17.855Z,65.04
2024-02-17T13:46:17.770Z,62.83
2024-02-17T13:47:17.808Z,65.01
2024-02-17T13:48:18.043Z,63.93
2024-02-17T13:49:17.888Z,66.52
2024-02-17T13:50:18.015Z,66.16
2024-02-17T13:51:17.835Z,66.52
2024-02-17T13:52:17.844Z,64.64
2024-02-17T13:53:17.826Z,64.09
2024-02-17T13:54:17.883Z,65.48
2024-02-17T13:55:17.812Z,65.07
2024-02-17T14:00:02.196Z,64.66
2024-02-17T14:00:41.745Z,65.56
